Time;durP1;ratioP1;P1;durP2;ratioP2;P2;SDS_P1;SDS_P2;PMS_P1;PMS_P2;Temp;Humidity;BMP_temperature;BMP_pressure;BME280_temperature;BME280_humidity;BME280_pressure;Samples;Min_cycle;Max_cycle;Signal;HPM_P1;HPM_P2
2023/10/20 02:25:29;;;;;;;27.10;17.50;;;;;;;12.47;75.80;96928.32;232620;218;699736;-63
2023/10/20 02:30:34;;;;;;;24.80;18.10;;;;;;;12.45;75.82;96911.94;234204;217;137482;-62
2023/10/20 02:35:39;;;;;;;26.20;18.70;;;;;;;12.42;75.76;96899.62;234201;217;143969;-66
2023/10/20 02:40:50;;;;;;;27.00;19.50;;;;;;;12.38;75.79;96913.47;234224;216;137710;-63
2023/10/20 02:45:54;;;;;;;23.70;18.30;;;;;;;12.34;75.81;96920.26;234433;216;138540;-64
2023/10/20 02:50:57;;;;;;;27.80;18.60;;;;;;;12.35;75.85;96922.05;234236;216;144418;-66
2023/10/20 03:00:27;;;;;;;28.10;18.60;;;;;;;12.41;75.82;96921.84;232504;221;723142;-69
2023/10/20 03:05:30;;;;;;;23.80;17.20;;;;;;;12.38;75.88;96921.74;233771;219;137208;-70
2023/10/20 03:10:33;;;;;;;21.90;16.40;;;;;;;12.40;76.10;96922.66;233889;219;144533;-67
2023/10/20 03:15:36;;;;;;;21.40;15.20;;;;;;;12.40;76.29;96925.45;234316;216;139144;-68
2023/10/20 03:20:39;;;;;;;21.70;15.40;;;;;;;12.46;76.48;96921.28;234270;216;137015;-69
2023/10/20 03:25:43;;;;;;;19.90;15.10;;;;;;;12.54;76.47;96912.79;234227;217;143928;-66
2023/10/20 03:30:46;;;;;;;257.40;204.40;;;;;;;12.61;76.85;96908.08;234199;216;139712;-69
2023/10/20 03:36:03;;;;;;;79.10;67.80;;;;;;;12.67;76.97;96887.27;234228;216;138451;-64
2023/10/20 03:41:07;;;;;;;21.80;15.90;;;;;;;12.71;76.75;96868.83;234219;216;144471;-64
2023/10/20 03:46:13;;;;;;;152.10;106.50;;;;;;;12.72;76.67;96865.75;234412;216;139457;-63
2023/10/20 03:51:18;;;;;;;22.30;16.20;;;;;;;12.71;76.81;96856.34;234271;216;137985;-64
2023/10/20 03:56:23;;;;;;;19.10;13.70;;;;;;;12.71;76.78;96853.21;234693;214;145742;-64
2023/10/20 04:01:30;;;;;;;18.50;14.50;;;;;;;12.77;76.76;96850.09;234643;214;138901;-65
2023/10/20 04:06:33;;;;;;;20.90;15.30;;;;;;;12.81;76.42;96852.54;234695;214;137438;-65
2023/10/20 04:11:37;;;;;;;21.90;15.00;;;;;;;12.79;76.15;96844.65;234656;214;147301;-65
2023/10/20 04:16:41;;;;;;;23.30;16.50;;;;;;;12.74;76.18;96855.88;234590;214;139577;-66
2023/10/20 04:21:45;;;;;;;20.00;15.10;;;;;;;12.72;76.37;96858.91;234440;214;140912;-66
2023/10/20 04:26:50;;;;;;;277.10;222.50;;;;;;;12.74;76.72;96847.01;234451;214;147116;-69
2023/10/20 04:48:13;;;;;;;19.60;14.10;;;;;;;12.93;76.55;96844.11;234709;214;139594;-64
2023/10/20 05:03:45;;;;;;;17.50;13.20;;;;;;;12.97;77.04;96835.88;234732;214;140201;-63
2023/10/20 05:08:49;;;;;;;17.50;13.40;;;;;;;13.03;77.05;96841.77;234582;214;138717;-68
2023/10/20 05:13:52;;;;;;;17.30;14.00;;;;;;;13.09;77.01;96845.37;234439;215;145883;-68
2023/10/20 05:18:55;;;;;;;97.50;72.30;;;;;;;13.13;77.00;96844.64;234552;214;141085;-66
2023/10/20 05:24:06;;;;;;;21.50;15.80;;;;;;;13.18;77.13;96843.42;234465;214;137522;-73
2023/10/20 05:29:10;;;;;;;23.40;15.40;;;;;;;13.18;76.86;96840.05;234405;215;145865;-68
2023/10/20 05:34:14;;;;;;;21.40;13.60;;;;;;;13.15;76.87;96846.73;234497;215;139924;-69
2023/10/20 05:39:21;;;;;;;19.70;12.20;;;;;;;13.17;77.06;96850.83;234473;214;138255;-69
2023/10/20 05:44:24;;;;;;;19.00;12.50;;;;;;;13.23;77.21;96845.70;234360;214;145779;-65
2023/10/20 05:49:27;;;;;;;17.50;13.50;;;;;;;13.27;77.19;96843.56;234396;214;140364;-69
2023/10/20 05:54:31;;;;;;;16.50;13.10;;;;;;;13.30;77.18;96847.66;234534;215;137864;-70
2023/10/20 05:59:35;;;;;;;19.90;13.60;;;;;;;13.34;77.11;96847.56;234392;215;145722;-61
2023/10/20 06:04:38;;;;;;;19.90;12.30;;;;;;;13.36;77.18;96845.70;234490;215;139070;-65
2023/10/20 06:09:42;;;;;;;17.90;12.60;;;;;;;13.40;77.17;96842.20;234544;214;137683;-67
2023/10/20 06:14:46;;;;;;;17.20;12.80;;;;;;;13.46;77.24;96841.75;234618;214;145506;-67
2023/10/20 06:19:49;;;;;;;19.70;12.10;;;;;;;13.54;77.14;96840.92;234528;214;139418;-67
2023/10/20 06:24:52;;;;;;;18.30;12.50;;;;;;;13.59;77.00;96845.77;234613;214;140183;-67
2023/10/20 06:30:43;;;;;;;15.60;12.20;;;;;;;13.61;77.09;96837.30;234506;214;145702;-68
2023/10/20 06:35:32;;;;;;;18.20;12.60;;;;;;;13.62;77.10;96819.88;234599;214;138904;-66
2023/10/20 06:40:36;;;;;;;15.70;10.70;;;;;;;13.65;77.19;96823.86;234590;213;139198;-68
2023/10/20 06:45:39;;;;;;;16.10;11.30;;;;;;;13.73;77.26;96826.40;234741;214;145638;-69
2023/10/20 06:50:42;;;;;;;15.20;11.70;;;;;;;13.80;77.17;96820.07;234649;214;140142;-73
2023/10/20 06:55:48;;;;;;;15.60;11.20;;;;;;;13.87;77.13;96828.55;234517;215;137707;-72
2023/10/20 07:01:14;;;;;;;13.70;10.70;;;;;;;13.91;77.12;96823.13;234488;215;146523;-64
2023/10/20 07:06:17;;;;;;;13.80;10.20;;;;;;;13.91;77.12;96821.33;234578;214;140387;-66
2023/10/20 07:11:20;;;;;;;75.10;56.60;;;;;;;13.96;77.37;96812.89;234657;215;138410;-66
2023/10/20 07:16:24;;;;;;;25.30;20.00;;;;;;;14.10;77.53;96803.23;234617;215;145643;-67
2023/10/20 07:21:27;;;;;;;17.20;12.00;;;;;;;14.94;80.88;96797.42;234479;214;138813;-67
2023/10/20 07:26:31;;;;;;;54.20;35.40;;;;;;;15.96;75.96;96794.77;234382;213;138301;-63
2023/10/20 07:31:37;;;;;;;23.20;15.20;;;;;;;16.18;74.95;96784.13;234274;214;146707;-66
2023/10/20 07:36:42;;;;;;;13.70;10.10;;;;;;;16.40;73.49;96771.91;234404;214;140059;-66
2023/10/20 07:41:47;;;;;;;13.50;8.80;;;;;;;16.52;72.62;96765.45;234362;215;140381;-66
2023/10/20 07:46:51;;;;;;;12.90;10.10;;;;;;;16.56;72.24;96762.46;234381;214;147119;-69
2023/10/20 07:51:54;;;;;;;77.40;69.20;;;;;;;16.60;72.17;96755.48;234490;214;138932;-67
2023/10/20 07:56:58;;;;;;;85.50;73.10;;;;;;;16.58;71.55;96750.42;234347;215;137917;-64
2023/10/20 08:02:05;;;;;;;10.10;8.20;;;;;;;16.34;71.40;96755.32;234399;214;146797;-66
2023/10/20 08:07:11;;;;;;;9.70;7.70;;;;;;;16.03;71.75;96752.06;234480;214;139548;-67
2023/10/20 08:12:15;;;;;;;9.70;7.50;;;;;;;15.83;72.34;96748.08;234294;214;138384;-65
2023/10/20 08:17:18;;;;;;;9.10;7.40;;;;;;;15.70;73.11;96744.46;234326;214;145714;-64
2023/10/20 08:22:21;;;;;;;15.10;11.70;;;;;;;15.65;73.47;96738.45;234532;214;139253;-66
2023/10/20 08:27:26;;;;;;;12.90;7.80;;;;;;;15.62;73.80;96739.35;234371;214;139145;-67
2023/10/20 08:32:29;;;;;;;32.60;9.40;;;;;;;15.54;74.12;96739.87;233731;215;145802;-62
2023/10/20 08:37:32;;;;;;;21.10;14.90;;;;;;;15.49;74.79;96734.49;233393;215;138843;-67
2023/10/20 08:42:39;;;;;;;13.00;10.70;;;;;;;15.70;75.71;96726.04;233511;214;136753;-62
2023/10/20 08:47:43;;;;;;;13.20;9.60;;;;;;;16.30;75.40;96711.74;233362;215;146539;-64
2023/10/20 08:52:47;;;;;;;309.50;241.60;;;;;;;16.77;74.04;96715.11;233472;207;139370;-65
2023/10/20 08:57:51;;;;;;;29.50;11.90;;;;;;;16.78;72.49;96715.21;233983;214;137811;-65
2023/10/20 09:02:59;;;;;;;20.70;9.30;;;;;;;16.54;72.25;96712.77;233877;214;146410;-63
2023/10/20 09:14:03;;;;;;;14.70;9.20;;;;;;;16.11;73.23;96707.05;233234;215;138634;-64
2023/10/20 09:19:11;;;;;;;10.80;8.10;;;;;;;16.00;73.72;96707.04;233617;215;146710;-63
2023/10/20 09:24:14;;;;;;;12.50;8.20;;;;;;;15.93;74.25;96715.02;233655;214;139543;-63
2023/10/20 09:29:18;;;;;;;12.00;9.30;;;;;;;15.94;74.45;96699.41;233408;215;139100;-64
2023/10/20 09:37:01;;;;;;;12.80;9.50;;;;;;;16.00;74.95;96685.61;232263;225;725228;-61
2023/10/20 09:47:21;;;;;;;12.80;9.40;;;;;;;15.97;75.50;96682.15;230910;222;697279;-63
2023/10/20 09:52:45;;;;;;;46.50;29.40;;;;;;;15.97;75.91;96677.05;232886;220;137433;-62
2023/10/20 09:57:48;;;;;;;16.50;9.50;;;;;;;16.06;76.31;96670.58;233466;220;145406;-64
2023/10/20 10:02:58;;;;;;;20.60;9.60;;;;;;;16.16;76.12;96660.50;234128;215;138906;-64
2023/10/20 10:08:06;;;;;;;19.70;10.10;;;;;;;16.29;76.07;96660.32;234178;215;136541;-66
2023/10/20 10:13:09;;;;;;;21.80;10.40;;;;;;;16.36;75.92;96651.67;234249;213;143692;-66
2023/10/20 10:18:15;;;;;;;25.80;9.30;;;;;;;16.38;76.08;96640.84;234267;214;138909;-67
2023/10/20 10:36:04;;;;;;;21.20;10.50;;;;;;;16.72;76.79;96607.88;234388;214;138853;31
2023/10/20 10:41:07;;;;;;;18.70;10.50;;;;;;;16.84;76.74;96608.66;234158;209;137243;-62
2023/10/20 10:46:11;;;;;;;17.30;10.30;;;;;;;16.96;77.05;96605.73;234301;214;145469;-63
2023/10/20 10:51:15;;;;;;;13.60;10.30;;;;;;;17.14;77.00;96601.11;233944;213;139426;-62
2023/10/20 10:56:18;;;;;;;15.90;11.10;;;;;;;17.36;76.80;96604.39;234146;215;137320;-63
2023/10/20 11:01:21;;;;;;;12.20;10.20;;;;;;;17.51;76.70;96603.52;234090;209;145840;-64
2023/10/20 11:06:25;;;;;;;15.70;9.70;;;;;;;17.62;76.42;96597.55;234119;214;139816;-64
2023/10/20 11:11:28;;;;;;;16.40;10.60;;;;;;;17.68;76.39;96602.91;234139;214;136948;-62
2023/10/20 11:16:34;;;;;;;11.50;8.80;;;;;;;17.68;76.29;96604.77;233702;214;145849;-64
2023/10/20 11:21:51;;;;;;;11.20;8.30;;;;;;;17.73;76.36;96607.31;234084;213;140164;-63
2023/10/20 11:26:59;;;;;;;14.10;8.60;;;;;;;17.84;76.60;96610.74;234099;209;138357;-64
2023/10/20 11:32:08;;;;;;;16.10;9.20;;;;;;;17.92;76.64;96612.39;234106;213;147747;-65
2023/10/20 11:37:12;;;;;;;17.90;13.30;;;;;;;17.94;76.63;96609.13;234025;209;139087;-59
2023/10/20 11:42:15;;;;;;;14.00;10.50;;;;;;;17.95;76.59;96613.60;234146;214;137364;-60
2023/10/20 11:47:19;;;;;;;12.40;9.00;;;;;;;17.95;76.53;96619.07;234045;209;146373;-61
2023/10/20 11:52:23;;;;;;;349.60;267.30;;;;;;;17.95;76.85;96617.17;233105;209;138718;-54
2023/10/20 11:57:27;;;;;;;73.00;56.10;;;;;;;18.08;77.27;96619.57;233885;213;137973;-52
2023/10/20 12:02:31;;;;;;;40.70;31.90;;;;;;;18.30;77.13;96613.88;233978;209;146564;-58
2023/10/20 12:07:34;;;;;;;36.00;25.90;;;;;;;18.71;78.32;96607.13;234055;214;141179;-61
2023/10/20 12:12:39;;;;;;;83.90;51.70;;;;;;;19.09;77.18;96602.73;234203;209;137003;-62
2023/10/20 12:17:42;;;;;;;47.10;30.90;;;;;;;19.27;76.09;96589.69;234262;209;146776;-62
2023/10/20 12:22:45;;;;;;;73.40;46.40;;;;;;;19.39;75.34;96585.47;233804;208;139782;-62
2023/10/20 12:27:49;;;;;;;22.60;16.30;;;;;;;19.49;75.05;96584.08;234188;214;136782;-61
2023/10/20 12:32:52;;;;;;;22.20;12.50;;;;;;;19.59;74.46;96575.45;234056;214;145627;-61
2023/10/20 12:37:56;;;;;;;22.00;12.30;;;;;;;19.66;74.61;96564.17;234058;209;139495;-60
2023/10/20 12:42:59;;;;;;;16.40;10.60;;;;;;;19.72;74.48;96555.59;234219;213;137613;-64
2023/10/20 12:48:03;;;;;;;377.90;259.90;;;;;;;19.79;74.16;96550.92;234289;213;146728;-59
2023/10/20 12:53:08;;;;;;;187.90;136.90;;;;;;;19.76;73.79;96550.17;234126;209;138912;-58
2023/10/20 12:58:12;;;;;;;18.60;11.10;;;;;;;19.58;73.73;96541.17;234366;212;138060;-61
2023/10/20 13:03:15;;;;;;;17.00;9.20;;;;;;;19.46;74.00;96531.38;233741;208;145853;-60
2023/10/20 13:08:20;;;;;;;18.10;9.20;;;;;;;19.34;74.30;96521.63;233993;214;138975;-63
2023/10/20 13:13:27;;;;;;;12.70;8.40;;;;;;;19.27;74.65;96520.94;234530;213;137142;31
2023/10/20 13:18:30;;;;;;;15.60;8.10;;;;;;;19.25;74.83;96517.83;234375;215;146599;-61
2023/10/20 13:23:34;;;;;;;18.20;9.70;;;;;;;19.27;75.16;96517.99;234284;208;138965;-61
2023/10/20 13:28:37;;;;;;;19.50;9.90;;;;;;;19.32;75.63;96521.59;234517;213;137671;-61
2023/10/20 13:33:40;;;;;;;19.40;9.30;;;;;;;19.38;75.57;96527.55;232929;212;145441;-61
2023/10/20 13:38:43;;;;;;;19.00;9.10;;;;;;;19.43;75.53;96539.52;234351;213;139854;-61
2023/10/20 13:43:48;;;;;;;17.70;9.60;;;;;;;19.39;75.41;96544.30;234431;213;137546;-61
2023/10/20 13:48:54;;;;;;;23.80;8.40;;;;;;;19.43;74.80;96546.98;234087;213;146287;-61
2023/10/20 13:53:57;;;;;;;21.00;6.00;;;;;;;19.48;74.55;96540.88;234206;213;138718;-60
2023/10/20 13:59:01;;;;;;;14.00;4.80;;;;;;;19.62;73.08;96539.88;234407;213;137431;-62
2023/10/20 14:04:06;;;;;;;14.00;4.80;;;;;;;19.76;71.95;96540.00;234587;213;147691;-61
2023/10/20 14:09:12;;;;;;;13.30;4.30;;;;;;;19.87;71.02;96535.76;234269;214;139428;-60
2023/10/20 14:14:16;;;;;;;10.40;4.00;;;;;;;19.97;70.28;96535.37;234275;214;137215;-61
2023/10/20 14:19:21;;;;;;;17.90;6.20;;;;;;;20.02;69.74;96536.47;233881;213;145471;-55
2023/10/20 14:24:25;;;;;;;22.90;5.40;;;;;;;20.01;70.78;96540.55;234171;213;138894;-55
2023/10/20 14:29:28;;;;;;;14.40;8.40;;;;;;;20.01;70.97;96538.50;234230;214;139028;-52
2023/10/20 14:34:32;;;;;;;28.40;6.70;;;;;;;20.05;71.49;96535.87;234164;214;146695;-50
2023/10/20 14:39:37;;;;;;;20.20;7.60;;;;;;;20.11;71.37;96527.53;234091;214;138778;-53
2023/10/20 14:44:40;;;;;;;;;;;;;;;20.12;71.49;96524.29;234043;212;137605;-53
2023/10/20 14:49:43;;;;;;;14.20;8.10;;;;;;;20.10;71.77;96529.77;234223;209;146416;-51
2023/10/20 14:54:46;;;;;;;18.70;9.00;;;;;;;20.08;72.20;96530.49;234160;209;140018;-54
2023/10/20 14:59:50;;;;;;;16.40;8.50;;;;;;;20.09;72.12;96528.79;234195;212;138522;-53
2023/10/20 15:04:53;;;;;;;22.90;9.30;;;;;;;20.08;72.31;96525.63;234193;214;145735;-53
2023/10/20 15:09:57;;;;;;;21.60;10.40;;;;;;;20.06;72.20;96521.70;234441;213;138630;-53
2023/10/20 15:15:01;;;;;;;22.10;10.50;;;;;;;20.04;72.54;96527.69;234426;213;138501;-54
2023/10/20 15:20:06;;;;;;;25.40;11.30;;;;;;;20.02;72.59;96527.83;234300;213;148026;-60
2023/10/20 15:25:10;;;;;;;31.80;11.40;;;;;;;19.90;72.14;96529.35;234112;211;138848;-56
2023/10/20 15:30:14;;;;;;;24.70;10.50;;;;;;;19.78;72.58;96536.60;234018;213;138539;-56
2023/10/20 15:35:17;;;;;;;26.80;12.40;;;;;;;19.72;72.74;96544.64;234260;209;146842;-58
2023/10/20 15:40:24;;;;;;;24.50;11.60;;;;;;;19.62;72.69;96544.90;234192;213;138860;-59
2023/10/20 15:45:27;;;;;;;;;;;;;;;19.52;72.90;96543.80;234233;214;136739;-61
2023/10/20 15:50:32;;;;;;;56.00;31.60;;;;;;;19.37;73.23;96548.55;234335;214;146276;-59
2023/10/20 15:55:43;;;;;;;106.20;68.20;;;;;;;19.26;73.65;96551.02;234048;214;139013;-58
2023/10/20 16:00:46;;;;;;;22.80;11.70;;;;;;;19.16;73.80;96551.25;234082;213;139661;-57
2023/10/20 16:05:49;;;;;;;22.70;11.00;;;;;;;19.08;73.84;96551.06;234284;208;147050;-56
2023/10/20 16:10:53;;;;;;;23.70;11.30;;;;;;;19.03;74.09;96556.33;234135;214;139052;-55
2023/10/20 16:15:56;;;;;;;22.30;10.70;;;;;;;18.95;74.27;96561.73;234372;212;137675;-57
2023/10/20 16:21:00;;;;;;;21.70;12.20;;;;;;;18.88;74.72;96573.34;233978;214;146044;-50
2023/10/20 16:26:04;;;;;;;25.40;12.10;;;;;;;18.94;75.48;96563.69;234168;213;139350;-51
2023/10/20 16:31:07;;;;;;;26.60;10.60;;;;;;;18.95;74.71;96554.93;234113;209;138352;-61
2023/10/20 16:36:12;;;;;;;26.20;11.50;;;;;;;18.85;74.48;96570.04;234864;215;146373;-62
2023/10/20 16:41:17;;;;;;;30.90;13.70;;;;;;;18.79;74.29;96575.41;233969;213;139749;-61
2023/10/20 16:46:21;;;;;;;;;;;;;;;18.70;74.46;96571.34;234340;212;137079;-62
2023/10/20 16:51:24;;;;;;;32.20;12.60;;;;;;;18.57;74.59;96579.48;234243;212;146576;-61
2023/10/20 16:56:27;;;;;;;23.90;11.20;;;;;;;18.42;74.98;96579.97;234190;213;138874;-59
2023/10/20 17:01:31;;;;;;;164.70;124.20;;;;;;;18.33;75.55;96576.19;234210;212;138806;-60
2023/10/20 17:06:35;;;;;;;40.20;22.40;;;;;;;18.28;75.77;96588.48;234297;211;146494;-60
2023/10/20 17:11:38;;;;;;;32.00;13.20;;;;;;;18.22;75.71;96584.83;234256;213;139801;-60
2023/10/20 17:16:44;;;;;;;34.30;12.50;;;;;;;18.15;75.78;96578.76;234112;212;138141;-64
2023/10/20 17:21:48;;;;;;;28.70;12.70;;;;;;;18.07;75.95;96576.59;234088;213;146484;-59
2023/10/20 17:26:51;;;;;;;25.10;10.60;;;;;;;17.96;76.05;96572.45;234139;208;138911;-59
2023/10/20 17:31:54;;;;;;;31.70;11.60;;;;;;;17.89;76.28;96571.69;234172;209;138803;-60
2023/10/20 17:36:57;;;;;;;31.00;12.00;;;;;;;17.86;76.63;96561.48;233881;209;147298;-60
2023/10/20 17:42:02;;;;;;;29.80;12.40;;;;;;;17.87;76.71;96561.38;234062;212;139310;-64
2023/10/20 17:47:05;;;;;;;25.60;11.90;;;;;;;17.86;76.66;96564.27;234191;213;138365;-66
2023/10/20 17:52:09;;;;;;;31.30;12.20;;;;;;;17.81;76.59;96566.36;234444;209;146103;-63
2023/10/20 17:57:12;;;;;;;26.50;10.80;;;;;;;17.74;76.50;96568.45;233860;213;138990;-62
2023/10/20 18:02:16;;;;;;;27.40;10.30;;;;;;;17.70;76.62;96574.35;234412;214;138995;-62
2023/10/20 18:07:20;;;;;;;27.30;11.50;;;;;;;17.72;76.70;96568.86;234235;215;145956;-64
2023/10/20 18:12:23;;;;;;;24.20;10.50;;;;;;;17.80;76.73;96573.34;234347;213;139138;-60
2023/10/20 18:17:26;;;;;;;21.50;9.90;;;;;;;17.84;76.53;96588.68;234323;213;138625;-62
2023/10/20 18:22:30;;;;;;;22.10;9.60;;;;;;;17.85;76.34;96591.13;234547;208;147513;-62
2023/10/20 18:27:33;;;;;;;24.30;9.20;;;;;;;17.81;76.47;96598.30;234333;212;141218;-63
2023/10/20 18:32:36;;;;;;;17.90;8.00;;;;;;;17.86;76.37;96607.19;234248;213;139152;-62
2023/10/20 18:37:40;;;;;;;18.90;9.00;;;;;;;18.12;77.60;96616.30;234304;213;148411;-58
2023/10/20 18:42:43;;;;;;;19.20;9.00;;;;;;;18.87;78.18;96607.71;234170;215;138878;-56
2023/10/20 18:50:46;;;;;;;140.70;99.80;;;;;;;19.26;73.27;96614.16;232977;219;696488;-61
2023/10/20 19:01:21;;;;;;;17.20;9.00;;;;;;;19.23;71.71;96620.09;232616;218;696996;-61
2023/10/20 20:47:48;;;;;;;102.30;64.90;;;;;;;15.63;85.20;96646.64;232420;218;697930;-64
2023/10/20 20:52:52;;;;;;;37.20;15.20;;;;;;;15.81;84.58;96649.09;234436;214;136943;-64
2023/10/20 20:57:55;;;;;;;30.40;12.40;;;;;;;15.96;84.03;96657.54;234431;215;144434;-63
2023/10/20 21:02:59;;;;;;;30.50;13.00;;;;;;;16.14;83.34;96653.09;234239;213;139476;-63
2023/10/20 21:08:03;;;;;;;31.30;14.40;;;;;;;16.38;82.59;96653.67;234353;207;140535;-63
2023/10/20 21:13:07;;;;;;;35.50;16.00;;;;;;;16.59;81.71;96652.84;234497;213;144496;-64
2023/10/20 21:18:10;;;;;;;36.30;16.50;;;;;;;16.74;81.06;96650.59;234390;213;138737;-65
2023/10/20 21:23:16;;;;;;;31.70;16.80;;;;;;;16.86;80.31;96646.66;234603;213;137174;-64
2023/10/20 21:28:19;;;;;;;;;;;;;;;16.93;79.56;96650.76;234327;213;144571;-63
2023/10/20 21:33:23;;;;;;;29.20;14.10;;;;;;;16.94;79.07;96642.37;234342;214;138711;-63
2023/10/20 21:38:27;;;;;;;125.40;95.70;;;;;;;16.95;79.15;96645.73;234144;209;137727;-60
2023/10/20 21:43:30;;;;;;;48.80;31.50;;;;;;;17.16;79.13;96645.54;234114;212;147717;-62
2023/10/20 21:48:33;;;;;;;31.30;15.10;;;;;;;17.33;77.90;96651.27;234249;214;141125;-63
2023/10/20 21:53:38;;;;;;;29.70;14.80;;;;;;;17.29;77.31;96653.15;234485;214;136654;-62
2023/10/20 21:58:42;;;;;;;31.60;13.30;;;;;;;17.21;77.13;96659.38;234193;213;145752;-62
2023/10/20 22:03:45;;;;;;;25.50;12.30;;;;;;;17.13;77.19;96659.31;234160;212;139460;-62
2023/10/20 22:08:49;;;;;;;26.90;12.70;;;;;;;17.14;77.29;96670.73;234187;213;137450;-63
2023/10/20 22:13:52;;;;;;;24.10;11.70;;;;;;;17.16;77.04;96669.23;234286;212;146406;-62
2023/10/20 22:18:55;;;;;;;24.80;12.90;;;;;;;17.13;76.91;96671.22;234432;207;138922;-62
2023/10/20 22:23:58;;;;;;;25.90;12.20;;;;;;;17.11;76.85;96674.35;234558;212;136419;-66
2023/10/20 22:29:02;;;;;;;23.00;11.40;;;;;;;17.02;77.02;96675.48;234538;207;148087;-63
2023/10/20 22:34:05;;;;;;;120.70;91.90;;;;;;;16.97;77.14;96676.46;234139;207;139015;-59
2023/10/20 22:39:08;;;;;;;27.30;13.30;;;;;;;17.09;77.31;96679.02;234522;212;137860;-63
2023/10/20 22:44:11;;;;;;;20.70;12.40;;;;;;;17.16;76.47;96680.23;233773;208;145645;-64
2023/10/20 22:49:15;;;;;;;22.80;10.80;;;;;;;17.07;76.39;96680.36;233914;211;139590;-64
2023/10/20 22:54:18;;;;;;;23.90;10.80;;;;;;;16.96;76.45;96680.64;233705;212;137547;-63
2023/10/20 22:59:21;;;;;;;23.20;10.80;;;;;;;16.89;76.60;96686.36;233371;211;147408;-62
2023/10/20 23:04:24;;;;;;;18.80;9.10;;;;;;;16.86;76.92;96683.32;234189;207;139684;-61
2023/10/20 23:09:28;;;;;;;21.70;10.10;;;;;;;16.84;76.93;96678.70;234500;211;138262;-62
2023/10/20 23:14:31;;;;;;;22.30;10.20;;;;;;;16.82;76.90;96680.13;233471;212;146578;-62
2023/10/20 23:19:35;;;;;;;21.40;9.70;;;;;;;16.74;76.97;96686.05;234082;213;139165;-62
2023/10/20 23:24:38;;;;;;;21.80;10.10;;;;;;;16.66;77.07;96689.95;234072;211;137313;-61
2023/10/20 23:29:42;;;;;;;20.70;8.80;;;;;;;16.57;77.31;96697.54;234588;211;146167;-62
2023/10/20 23:34:45;;;;;;;16.50;8.30;;;;;;;16.49;77.58;96701.38;234523;207;140329;-62
2023/10/20 23:39:48;;;;;;;19.30;8.90;;;;;;;16.45;77.82;96702.95;234495;212;136756;-62
2023/10/20 23:44:52;;;;;;;23.80;9.60;;;;;;;16.45;77.96;96708.94;234176;212;146961;-62
2023/10/20 23:49:55;;;;;;;19.10;8.80;;;;;;;16.43;78.03;96722.30;234488;207;139420;-62
2023/10/20 23:54:58;;;;;;;25.50;9.60;;;;;;;16.44;78.08;96733.13;234587;207;137157;-62
